sensor_id;sensor_type;location;lat;lon;timestamp;temperature;humidity
5711;DHT22;61291;52.524;13.422;2023-11-25T00:01:11;1.50;99.90
5711;DHT22;61291;52.524;13.422;2023-11-25T00:03:37;1.60;99.90
5711;DHT22;61291;52.524;13.422;2023-11-25T00:06:03;1.70;99.90
5711;DHT22;61291;52.524;13.422;2023-11-25T00:08:28;1.70;99.90
5711;DHT22;61291;52.524;13.422;2023-11-25T00:10:55;1.60;99.90
5711;DHT22;61291;52.524;13.422;2023-11-25T00:13:21;1.70;99.90
5711;DHT22;61291;52.524;13.422;2023-11-25T00:15:46;1.70;99.90
5711;DHT22;61291;52.524;13.422;2023-11-25T00:18:12;1.60;99.90
5711;DHT22;61291;52.524;13.422;2023-11-25T00:20:38;1.60;99.90
5711;DHT22;61291;52.524;13.422;2023-11-25T00:23:04;1.50;99.90
5711;DHT22;61291;52.524;13.422;2023-11-25T00:25:29;1.50;99.90
5711;DHT22;61291;52.524;13.422;2023-11-25T00:27:55;1.50;99.90
5711;DHT22;61291;52.524;13.422;2023-11-25T00:30:20;1.40;99.90
5711;DHT22;61291;52.524;13.422;2023-11-25T00:32:46;1.40;99.90
5711;DHT22;61291;52.524;13.422;2023-11-25T00:35:12;1.50;99.90
5711;DHT22;61291;52.524;13.422;2023-11-25T00:37:37;1.50;99.90
5711;DHT22;61291;52.524;13.422;2023-11-25T00:40:06;1.50;99.90
5711;DHT22;61291;52.524;13.422;2023-11-25T00:42:36;1.50;99.90
5711;DHT22;61291;52.524;13.422;2023-11-25T00:45:02;1.50;99.90
5711;DHT22;61291;52.524;13.422;2023-11-25T00:47:29;1.60;99.90
5711;DHT22;61291;52.524;13.422;2023-11-25T00:49:56;1.50;99.90
5711;DHT22;61291;52.524;13.422;2023-11-25T00:52:21;1.50;99.90
5711;DHT22;61291;52.524;13.422;2023-11-25T00:54:47;1.40;99.90
5711;DHT22;61291;52.524;13.422;2023-11-25T00:57:14;1.40;99.90
5711;DHT22;61291;52.524;13.422;2023-11-25T00:59:41;1.40;99.90
5711;DHT22;61291;52.524;13.422;2023-11-25T01:02:06;1.40;99.90
5711;DHT22;61291;52.524;13.422;2023-11-25T01:04:32;1.40;99.90
5711;DHT22;61291;52.524;13.422;2023-11-25T01:06:57;1.50;99.90
5711;DHT22;61291;52.524;13.422;2023-11-25T01:09:23;1.50;99.90
5711;DHT22;61291;52.524;13.422;2023-11-25T01:11:51;1.50;99.90
5711;DHT22;61291;52.524;13.422;2023-11-25T01:14:16;1.40;99.90
5711;DHT22;61291;52.524;13.422;2023-11-25T01:16:43;1.50;99.90
5711;DHT22;61291;52.524;13.422;2023-11-25T01:19:08;1.40;99.90
5711;DHT22;61291;52.524;13.422;2023-11-25T01:21:34;1.50;99.90
5711;DHT22;61291;52.524;13.422;2023-11-25T01:23:59;1.50;99.90
5711;DHT22;61291;52.524;13.422;2023-11-25T01:26:25;1.40;99.90
5711;DHT22;61291;52.524;13.422;2023-11-25T01:28:50;1.50;99.90
5711;DHT22;61291;52.524;13.422;2023-11-25T01:31:17;1.60;99.90
5711;DHT22;61291;52.524;13.422;2023-11-25T01:33:43;1.70;99.90
5711;DHT22;61291;52.524;13.422;2023-11-25T01:36:08;1.80;99.90
5711;DHT22;61291;52.524;13.422;2023-11-25T01:38:37;1.80;99.90
5711;DHT22;61291;52.524;13.422;2023-11-25T01:41:04;1.90;99.90
5711;DHT22;61291;52.524;13.422;2023-11-25T01:43:30;2.00;99.90
5711;DHT22;61291;52.524;13.422;2023-11-25T01:45:56;2.00;99.90
5711;DHT22;61291;52.524;13.422;2023-11-25T01:48:23;2.00;99.90
5711;DHT22;61291;52.524;13.422;2023-11-25T01:50:49;2.00;99.90
5711;DHT22;61291;52.524;13.422;2023-11-25T01:53:15;2.10;99.90
5711;DHT22;61291;52.524;13.422;2023-11-25T01:55:45;2.10;99.90
5711;DHT22;61291;52.524;13.422;2023-11-25T01:58:14;2.10;99.90
5711;DHT22;61291;52.524;13.422;2023-11-25T02:00:43;2.20;99.90
5711;DHT22;61291;52.524;13.422;2023-11-25T02:03:08;2.20;99.90
5711;DHT22;61291;52.524;13.422;2023-11-25T02:05:35;2.20;99.90
5711;DHT22;61291;52.524;13.422;2023-11-25T02:08:01;2.20;99.90
5711;DHT22;61291;52.524;13.422;2023-11-25T02:10:27;2.30;99.90
5711;DHT22;61291;52.524;13.422;2023-11-25T02:12:52;2.30;99.90
5711;DHT22;61291;52.524;13.422;2023-11-25T02:15:18;2.40;99.90
5711;DHT22;61291;52.524;13.422;2023-11-25T02:17:44;2.30;99.90
5711;DHT22;61291;52.524;13.422;2023-11-25T02:20:11;2.40;99.90
5711;DHT22;61291;52.524;13.422;2023-11-25T02:22:47;2.40;99.90
5711;DHT22;61291;52.524;13.422;2023-11-25T02:25:13;2.40;99.90
5711;DHT22;61291;52.524;13.422;2023-11-25T02:27:49;2.40;99.90
5711;DHT22;61291;52.524;13.422;2023-11-25T02:30:15;2.40;99.90
5711;DHT22;61291;52.524;13.422;2023-11-25T02:32:41;2.40;99.90
5711;DHT22;61291;52.524;13.422;2023-11-25T02:35:07;2.40;99.90
5711;DHT22;61291;52.524;13.422;2023-11-25T02:37:32;2.40;99.90
5711;DHT22;61291;52.524;13.422;2023-11-25T02:39:58;2.40;99.90
5711;DHT22;61291;52.524;13.422;2023-11-25T02:42:23;2.40;99.90
5711;DHT22;61291;52.524;13.422;2023-11-25T02:44:49;2.30;99.90
5711;DHT22;61291;52.524;13.422;2023-11-25T02:47:15;2.20;99.90
5711;DHT22;61291;52.524;13.422;2023-11-25T02:49:41;2.10;99.90
5711;DHT22;61291;52.524;13.422;2023-11-25T02:52:06;2.00;99.90
5711;DHT22;61291;52.524;13.422;2023-11-25T02:54:33;2.00;99.90
5711;DHT22;61291;52.524;13.422;2023-11-25T02:56:58;1.90;99.90
5711;DHT22;61291;52.524;13.422;2023-11-25T02:59:25;1.80;99.90
5711;DHT22;61291;52.524;13.422;2023-11-25T03:01:50;1.80;99.90
5711;DHT22;61291;52.524;13.422;2023-11-25T03:04:19;1.70;99.90
5711;DHT22;61291;52.524;13.422;2023-11-25T03:06:46;1.70;99.90
5711;DHT22;61291;52.524;13.422;2023-11-25T03:09:12;1.70;99.90
5711;DHT22;61291;52.524;13.422;2023-11-25T03:11:39;1.60;99.90
5711;DHT22;61291;52.524;13.422;2023-11-25T03:14:04;1.60;99.90
5711;DHT22;61291;52.524;13.422;2023-11-25T03:16:32;1.70;99.90
5711;DHT22;61291;52.524;13.422;2023-11-25T03:18:57;1.70;99.90
5711;DHT22;61291;52.524;13.422;2023-11-25T03:21:23;1.80;99.90
5711;DHT22;61291;52.524;13.422;2023-11-25T03:23:50;1.80;99.90
5711;DHT22;61291;52.524;13.422;2023-11-25T03:26:15;1.80;99.90
5711;DHT22;61291;52.524;13.422;2023-11-25T03:28:41;1.80;99.90
5711;DHT22;61291;52.524;13.422;2023-11-25T03:31:07;1.80;99.90
5711;DHT22;61291;52.524;13.422;2023-11-25T03:33:35;1.90;99.90
5711;DHT22;61291;52.524;13.422;2023-11-25T03:36:01;1.90;99.90
5711;DHT22;61291;52.524;13.422;2023-11-25T03:38:26;1.90;99.90
5711;DHT22;61291;52.524;13.422;2023-11-25T03:40:52;2.00;99.90
5711;DHT22;61291;52.524;13.422;2023-11-25T03:43:19;2.10;99.90
5711;DHT22;61291;52.524;13.422;2023-11-25T03:45:47;2.10;99.90
5711;DHT22;61291;52.524;13.422;2023-11-25T03:48:12;2.20;99.90
5711;DHT22;61291;52.524;13.422;2023-11-25T03:50:39;2.20;99.90
5711;DHT22;61291;52.524;13.422;2023-11-25T03:53:05;2.30;99.90
5711;DHT22;61291;52.524;13.422;2023-11-25T03:55:30;2.30;99.90
5711;DHT22;61291;52.524;13.422;2023-11-25T03:57:56;2.30;99.90
5711;DHT22;61291;52.524;13.422;2023-11-25T04:00:21;2.40;99.90
5711;DHT22;61291;52.524;13.422;2023-11-25T04:02:48;2.40;99.90
5711;DHT22;61291;52.524;13.422;2023-11-25T04:05:15;2.40;99.90
5711;DHT22;61291;52.524;13.422;2023-11-25T04:07:44;2.40;99.90
5711;DHT22;61291;52.524;13.422;2023-11-25T04:10:11;2.40;99.90
5711;DHT22;61291;52.524;13.422;2023-11-25T04:12:45;2.50;99.90
5711;DHT22;61291;52.524;13.422;2023-11-25T04:15:19;2.50;99.90
5711;DHT22;61291;52.524;13.422;2023-11-25T04:17:48;2.60;99.90
5711;DHT22;61291;52.524;13.422;2023-11-25T04:20:20;2.60;99.90
5711;DHT22;61291;52.524;13.422;2023-11-25T04:23:24;2.70;99.90
5711;DHT22;61291;52.524;13.422;2023-11-25T04:25:50;2.70;99.90
5711;DHT22;61291;52.524;13.422;2023-11-25T04:28:15;2.80;99.90
5711;DHT22;61291;52.524;13.422;2023-11-25T04:30:41;2.70;99.90
5711;DHT22;61291;52.524;13.422;2023-11-25T04:33:07;2.80;99.90
5711;DHT22;61291;52.524;13.422;2023-11-25T04:35:36;2.90;99.90
5711;DHT22;61291;52.524;13.422;2023-11-25T04:38:03;2.90;99.90
5711;DHT22;61291;52.524;13.422;2023-11-25T04:40:29;2.90;99.90
5711;DHT22;61291;52.524;13.422;2023-11-25T04:42:54;3.00;99.90
5711;DHT22;61291;52.524;13.422;2023-11-25T04:45:20;2.90;99.90
5711;DHT22;61291;52.524;13.422;2023-11-25T04:47:49;2.90;99.90
5711;DHT22;61291;52.524;13.422;2023-11-25T04:50:20;2.90;99.90
5711;DHT22;61291;52.524;13.422;2023-11-25T04:52:51;2.90;99.90
5711;DHT22;61291;52.524;13.422;2023-11-25T04:55:17;2.80;99.90
5711;DHT22;61291;52.524;13.422;2023-11-25T04:57:47;2.90;99.90
5711;DHT22;61291;52.524;13.422;2023-11-25T05:00:13;2.90;99.90
5711;DHT22;61291;52.524;13.422;2023-11-25T05:02:41;2.90;99.90
5711;DHT22;61291;52.524;13.422;2023-11-25T05:05:10;2.80;99.90
5711;DHT22;61291;52.524;13.422;2023-11-25T05:07:35;2.60;99.90
5711;DHT22;61291;52.524;13.422;2023-11-25T05:10:05;2.50;99.90
5711;DHT22;61291;52.524;13.422;2023-11-25T05:12:32;2.30;99.90
5711;DHT22;61291;52.524;13.422;2023-11-25T05:14:57;2.20;99.90
5711;DHT22;61291;52.524;13.422;2023-11-25T05:17:24;2.20;99.90
5711;DHT22;61291;52.524;13.422;2023-11-25T05:19:50;2.10;99.90
5711;DHT22;61291;52.524;13.422;2023-11-25T05:22:15;2.20;99.90
5711;DHT22;61291;52.524;13.422;2023-11-25T05:24:41;2.20;99.90
5711;DHT22;61291;52.524;13.422;2023-11-25T05:27:06;2.20;99.90
5711;DHT22;61291;52.524;13.422;2023-11-25T05:29:32;2.20;99.90
5711;DHT22;61291;52.524;13.422;2023-11-25T05:31:59;2.20;99.90
5711;DHT22;61291;52.524;13.422;2023-11-25T05:34:26;2.20;99.90
5711;DHT22;61291;52.524;13.422;2023-11-25T05:36:52;2.10;99.90
5711;DHT22;61291;52.524;13.422;2023-11-25T05:39:17;2.20;99.90
5711;DHT22;61291;52.524;13.422;2023-11-25T05:41:47;2.10;99.90
5711;DHT22;61291;52.524;13.422;2023-11-25T05:44:14;1.90;99.90
5711;DHT22;61291;52.524;13.422;2023-11-25T05:46:39;1.80;99.90
5711;DHT22;61291;52.524;13.422;2023-11-25T05:49:05;1.80;99.90
5711;DHT22;61291;52.524;13.422;2023-11-25T05:51:38;1.70;99.90
5711;DHT22;61291;52.524;13.422;2023-11-25T05:54:05;1.60;99.90
5711;DHT22;61291;52.524;13.422;2023-11-25T05:56:31;1.60;99.90
5711;DHT22;61291;52.524;13.422;2023-11-25T05:58:57;1.70;99.90
5711;DHT22;61291;52.524;13.422;2023-11-25T06:01:23;1.70;99.90
5711;DHT22;61291;52.524;13.422;2023-11-25T06:03:51;1.70;99.90
5711;DHT22;61291;52.524;13.422;2023-11-25T06:06:17;1.70;99.90
5711;DHT22;61291;52.524;13.422;2023-11-25T06:08:45;1.60;99.90
5711;DHT22;61291;52.524;13.422;2023-11-25T06:11:38;1.60;99.90
5711;DHT22;61291;52.524;13.422;2023-11-25T06:14:03;1.50;99.90
5711;DHT22;61291;52.524;13.422;2023-11-25T06:16:30;1.40;99.90
5711;DHT22;61291;52.524;13.422;2023-11-25T06:18:56;1.50;99.90
5711;DHT22;61291;52.524;13.422;2023-11-25T06:21:22;1.40;99.90
5711;DHT22;61291;52.524;13.422;2023-11-25T06:23:48;1.50;99.90
5711;DHT22;61291;52.524;13.422;2023-11-25T06:26:14;1.30;99.90
5711;DHT22;61291;52.524;13.422;2023-11-25T06:28:45;1.10;99.90
5711;DHT22;61291;52.524;13.422;2023-11-25T06:31:12;1.10;99.90
5711;DHT22;61291;52.524;13.422;2023-11-25T06:33:38;1.10;99.90
5711;DHT22;61291;52.524;13.422;2023-11-25T06:36:05;1.10;99.90
5711;DHT22;61291;52.524;13.422;2023-11-25T06:38:31;1.20;99.90
5711;DHT22;61291;52.524;13.422;2023-11-25T06:40:57;1.10;99.90
5711;DHT22;61291;52.524;13.422;2023-11-25T06:43:23;1.10;99.90
5711;DHT22;61291;52.524;13.422;2023-11-25T06:45:51;1.00;99.90
5711;DHT22;61291;52.524;13.422;2023-11-25T06:48:17;0.90;99.90
5711;DHT22;61291;52.524;13.422;2023-11-25T06:50:44;0.90;99.90
5711;DHT22;61291;52.524;13.422;2023-11-25T06:53:09;1.00;99.90
5711;DHT22;61291;52.524;13.422;2023-11-25T06:55:35;1.00;99.90
5711;DHT22;61291;52.524;13.422;2023-11-25T06:58:00;1.00;99.90
5711;DHT22;61291;52.524;13.422;2023-11-25T07:00:26;1.10;99.90
5711;DHT22;61291;52.524;13.422;2023-11-25T07:02:51;1.10;99.90
5711;DHT22;61291;52.524;13.422;2023-11-25T07:05:17;1.20;99.90
5711;DHT22;61291;52.524;13.422;2023-11-25T07:07:42;1.10;99.90
5711;DHT22;61291;52.524;13.422;2023-11-25T07:10:08;1.20;99.90
5711;DHT22;61291;52.524;13.422;2023-11-25T07:12:39;1.30;99.90
5711;DHT22;61291;52.524;13.422;2023-11-25T07:15:06;1.40;99.90
5711;DHT22;61291;52.524;13.422;2023-11-25T07:17:33;1.60;99.90
5711;DHT22;61291;52.524;13.422;2023-11-25T07:19:58;1.80;99.90
5711;DHT22;61291;52.524;13.422;2023-11-25T07:22:24;1.90;99.90
5711;DHT22;61291;52.524;13.422;2023-11-25T07:24:49;2.00;99.90
5711;DHT22;61291;52.524;13.422;2023-11-25T07:27:16;2.10;99.90
5711;DHT22;61291;52.524;13.422;2023-11-25T07:29:46;2.10;99.90
5711;DHT22;61291;52.524;13.422;2023-11-25T07:32:12;2.10;99.90
5711;DHT22;61291;52.524;13.422;2023-11-25T07:34:38;2.10;99.90
5711;DHT22;61291;52.524;13.422;2023-11-25T07:37:04;2.10;99.90
5711;DHT22;61291;52.524;13.422;2023-11-25T07:39:31;2.20;99.90
5711;DHT22;61291;52.524;13.422;2023-11-25T07:41:58;2.20;99.90
5711;DHT22;61291;52.524;13.422;2023-11-25T07:44:25;2.20;99.90
5711;DHT22;61291;52.524;13.422;2023-11-25T07:46:52;2.30;99.90
5711;DHT22;61291;52.524;13.422;2023-11-25T07:49:25;2.30;99.90
5711;DHT22;61291;52.524;13.422;2023-11-25T07:51:51;2.20;99.90
5711;DHT22;61291;52.524;13.422;2023-11-25T07:54:17;2.10;99.90
5711;DHT22;61291;52.524;13.422;2023-11-25T07:56:49;2.00;99.90
5711;DHT22;61291;52.524;13.422;2023-11-25T07:59:15;2.00;99.90
5711;DHT22;61291;52.524;13.422;2023-11-25T08:01:40;2.00;99.90
5711;DHT22;61291;52.524;13.422;2023-11-25T08:04:06;2.00;99.90
5711;DHT22;61291;52.524;13.422;2023-11-25T08:06:50;2.00;99.90
5711;DHT22;61291;52.524;13.422;2023-11-25T08:09:50;1.90;99.90
5711;DHT22;61291;52.524;13.422;2023-11-25T08:12:19;1.90;99.90
5711;DHT22;61291;52.524;13.422;2023-11-25T08:14:44;1.90;99.90
5711;DHT22;61291;52.524;13.422;2023-11-25T08:17:22;1.90;99.90
5711;DHT22;61291;52.524;13.422;2023-11-25T08:19:56;2.00;99.90
5711;DHT22;61291;52.524;13.422;2023-11-25T08:22:22;2.00;99.90
5711;DHT22;61291;52.524;13.422;2023-11-25T08:24:47;2.10;99.90
5711;DHT22;61291;52.524;13.422;2023-11-25T08:27:13;2.30;99.90
5711;DHT22;61291;52.524;13.422;2023-11-25T08:29:38;2.50;99.90
5711;DHT22;61291;52.524;13.422;2023-11-25T08:32:04;2.60;99.90
5711;DHT22;61291;52.524;13.422;2023-11-25T08:34:31;2.80;99.90
5711;DHT22;61291;52.524;13.422;2023-11-25T08:36:56;3.00;99.90
5711;DHT22;61291;52.524;13.422;2023-11-25T08:39:22;3.20;99.90
5711;DHT22;61291;52.524;13.422;2023-11-25T08:41:51;3.20;99.90
5711;DHT22;61291;52.524;13.422;2023-11-25T08:44:18;3.30;99.90
5711;DHT22;61291;52.524;13.422;2023-11-25T08:46:44;3.40;99.90
5711;DHT22;61291;52.524;13.422;2023-11-25T08:49:11;3.40;99.90
5711;DHT22;61291;52.524;13.422;2023-11-25T08:51:41;3.50;99.90
5711;DHT22;61291;52.524;13.422;2023-11-25T08:54:11;3.60;99.90
5711;DHT22;61291;52.524;13.422;2023-11-25T08:56:40;3.80;99.90
5711;DHT22;61291;52.524;13.422;2023-11-25T08:59:05;4.30;99.90
5711;DHT22;61291;52.524;13.422;2023-11-25T09:01:40;4.80;99.90
5711;DHT22;61291;52.524;13.422;2023-11-25T09:04:08;5.20;99.90
5711;DHT22;61291;52.524;13.422;2023-11-25T09:06:34;5.60;99.90
5711;DHT22;61291;52.524;13.422;2023-11-25T09:09:03;5.90;99.90
5711;DHT22;61291;52.524;13.422;2023-11-25T09:11:31;6.20;99.90
5711;DHT22;61291;52.524;13.422;2023-11-25T09:13:56;6.30;99.90
5711;DHT22;61291;52.524;13.422;2023-11-25T09:16:22;6.30;99.90
5711;DHT22;61291;52.524;13.422;2023-11-25T09:18:47;6.30;99.90
5711;DHT22;61291;52.524;13.422;2023-11-25T09:21:13;6.30;99.90
5711;DHT22;61291;52.524;13.422;2023-11-25T09:23:39;6.30;99.90
5711;DHT22;61291;52.524;13.422;2023-11-25T09:26:04;6.20;99.90
5711;DHT22;61291;52.524;13.422;2023-11-25T09:28:30;6.10;99.90
5711;DHT22;61291;52.524;13.422;2023-11-25T09:30:55;5.90;99.90
5711;DHT22;61291;52.524;13.422;2023-11-25T09:33:21;5.90;99.90
5711;DHT22;61291;52.524;13.422;2023-11-25T09:35:47;5.90;99.90
5711;DHT22;61291;52.524;13.422;2023-11-25T09:38:13;5.80;99.90
5711;DHT22;61291;52.524;13.422;2023-11-25T09:40:39;5.70;99.90
5711;DHT22;61291;52.524;13.422;2023-11-25T09:43:04;5.70;99.90
5711;DHT22;61291;52.524;13.422;2023-11-25T09:45:30;5.60;99.90
5711;DHT22;61291;52.524;13.422;2023-11-25T09:47:55;5.70;99.90
5711;DHT22;61291;52.524;13.422;2023-11-25T09:50:21;5.70;99.90
5711;DHT22;61291;52.524;13.422;2023-11-25T09:52:52;5.80;99.90
5711;DHT22;61291;52.524;13.422;2023-11-25T09:55:19;5.90;99.90
5711;DHT22;61291;52.524;13.422;2023-11-25T09:57:45;5.90;99.90
5711;DHT22;61291;52.524;13.422;2023-11-25T10:00:15;5.80;99.90
5711;DHT22;61291;52.524;13.422;2023-11-25T10:02:45;5.60;99.90
5711;DHT22;61291;52.524;13.422;2023-11-25T10:05:12;5.40;99.90
5711;DHT22;61291;52.524;13.422;2023-11-25T10:07:38;5.50;99.90
5711;DHT22;61291;52.524;13.422;2023-11-25T10:10:04;5.70;99.90
5711;DHT22;61291;52.524;13.422;2023-11-25T10:12:30;6.00;99.90
5711;DHT22;61291;52.524;13.422;2023-11-25T10:14:56;6.20;99.90
5711;DHT22;61291;52.524;13.422;2023-11-25T10:17:24;6.50;99.90
5711;DHT22;61291;52.524;13.422;2023-11-25T10:20:06;6.50;99.90
5711;DHT22;61291;52.524;13.422;2023-11-25T10:22:46;6.60;99.90
5711;DHT22;61291;52.524;13.422;2023-11-25T10:25:13;6.90;99.90
5711;DHT22;61291;52.524;13.422;2023-11-25T10:27:38;7.20;99.90
5711;DHT22;61291;52.524;13.422;2023-11-25T10:30:06;7.20;99.90
5711;DHT22;61291;52.524;13.422;2023-11-25T10:32:34;7.20;99.90
5711;DHT22;61291;52.524;13.422;2023-11-25T10:35:00;7.30;99.90
5711;DHT22;61291;52.524;13.422;2023-11-25T10:37:26;7.40;99.90
5711;DHT22;61291;52.524;13.422;2023-11-25T10:39:52;7.40;99.90
5711;DHT22;61291;52.524;13.422;2023-11-25T10:42:17;7.30;99.90
5711;DHT22;61291;52.524;13.422;2023-11-25T10:44:44;7.40;99.90
5711;DHT22;61291;52.524;13.422;2023-11-25T10:47:31;7.30;99.90
5711;DHT22;61291;52.524;13.422;2023-11-25T10:49:58;7.30;99.90
5711;DHT22;61291;52.524;13.422;2023-11-25T10:52:25;7.30;99.90
5711;DHT22;61291;52.524;13.422;2023-11-25T10:54:53;7.30;99.90
5711;DHT22;61291;52.524;13.422;2023-11-25T10:57:19;7.50;99.90
5711;DHT22;61291;52.524;13.422;2023-11-25T10:59:45;7.50;99.90
5711;DHT22;61291;52.524;13.422;2023-11-25T11:02:23;7.50;99.90
5711;DHT22;61291;52.524;13.422;2023-11-25T11:04:56;7.40;99.90
5711;DHT22;61291;52.524;13.422;2023-11-25T11:07:24;7.40;99.90
5711;DHT22;61291;52.524;13.422;2023-11-25T11:09:55;7.30;99.90
5711;DHT22;61291;52.524;13.422;2023-11-25T11:12:30;7.20;99.90
5711;DHT22;61291;52.524;13.422;2023-11-25T11:15:04;7.20;99.90
5711;DHT22;61291;52.524;13.422;2023-11-25T11:20:44;6.90;99.90
5711;DHT22;61291;52.524;13.422;2023-11-25T11:23:16;6.90;99.90
5711;DHT22;61291;52.524;13.422;2023-11-25T11:28:23;6.70;99.90
5711;DHT22;61291;52.524;13.422;2023-11-25T11:33:50;6.50;99.90
5711;DHT22;61291;52.524;13.422;2023-11-25T11:36:28;6.60;99.90
5711;DHT22;61291;52.524;13.422;2023-11-25T11:38:55;6.60;99.90
5711;DHT22;61291;52.524;13.422;2023-11-25T11:44:08;6.50;99.90
5711;DHT22;61291;52.524;13.422;2023-11-25T11:46:40;6.50;99.90
5711;DHT22;61291;52.524;13.422;2023-11-25T11:49:07;6.30;99.90
5711;DHT22;61291;52.524;13.422;2023-11-25T11:51:34;6.20;99.90
5711;DHT22;61291;52.524;13.422;2023-11-25T11:57:05;6.20;99.90
5711;DHT22;61291;52.524;13.422;2023-11-25T11:59:56;6.30;99.90
5711;DHT22;61291;52.524;13.422;2023-11-25T12:02:36;6.20;99.90
5711;DHT22;61291;52.524;13.422;2023-11-25T12:05:05;5.70;99.90
5711;DHT22;61291;52.524;13.422;2023-11-25T12:07:31;5.50;99.90
5711;DHT22;61291;52.524;13.422;2023-11-25T12:09:57;5.60;99.90
5711;DHT22;61291;52.524;13.422;2023-11-25T12:12:23;5.70;99.90
5711;DHT22;61291;52.524;13.422;2023-11-25T12:14:50;5.80;99.90
5711;DHT22;61291;52.524;13.422;2023-11-25T12:17:16;5.80;99.90
5711;DHT22;61291;52.524;13.422;2023-11-25T12:19:42;5.70;99.90
5711;DHT22;61291;52.524;13.422;2023-11-25T12:22:11;5.60;99.90
5711;DHT22;61291;52.524;13.422;2023-11-25T12:24:41;5.50;99.90
5711;DHT22;61291;52.524;13.422;2023-11-25T12:27:10;5.40;99.90
5711;DHT22;61291;52.524;13.422;2023-11-25T12:29:35;5.30;99.90
5711;DHT22;61291;52.524;13.422;2023-11-25T12:32:01;5.30;99.90
5711;DHT22;61291;52.524;13.422;2023-11-25T12:34:28;5.40;99.90
5711;DHT22;61291;52.524;13.422;2023-11-25T12:36:56;5.50;99.90
5711;DHT22;61291;52.524;13.422;2023-11-25T12:39:21;5.60;99.90
5711;DHT22;61291;52.524;13.422;2023-11-25T12:41:47;5.60;99.90
5711;DHT22;61291;52.524;13.422;2023-11-25T12:44:15;5.60;99.90
5711;DHT22;61291;52.524;13.422;2023-11-25T12:46:42;5.50;99.90
5711;DHT22;61291;52.524;13.422;2023-11-25T12:49:24;5.40;99.90
5711;DHT22;61291;52.524;13.422;2023-11-25T12:51:50;5.30;99.90
5711;DHT22;61291;52.524;13.422;2023-11-25T12:54:17;5.20;99.90
5711;DHT22;61291;52.524;13.422;2023-11-25T12:56:48;5.20;99.90
5711;DHT22;61291;52.524;13.422;2023-11-25T13:01:48;5.30;99.90
5711;DHT22;61291;52.524;13.422;2023-11-25T13:04:13;5.20;99.90
5711;DHT22;61291;52.524;13.422;2023-11-25T13:06:49;5.20;99.90
5711;DHT22;61291;52.524;13.422;2023-11-25T13:09:15;5.30;99.90
5711;DHT22;61291;52.524;13.422;2023-11-25T13:11:45;5.30;99.90
5711;DHT22;61291;52.524;13.422;2023-11-25T13:14:17;5.30;99.90
5711;DHT22;61291;52.524;13.422;2023-11-25T13:16:44;5.30;99.90
5711;DHT22;61291;52.524;13.422;2023-11-25T13:19:09;5.20;99.90
5711;DHT22;61291;52.524;13.422;2023-11-25T13:21:35;4.90;99.90
5711;DHT22;61291;52.524;13.422;2023-11-25T13:24:01;4.70;99.90
5711;DHT22;61291;52.524;13.422;2023-11-25T13:26:27;4.60;99.90
5711;DHT22;61291;52.524;13.422;2023-11-25T13:28:53;4.60;99.90
5711;DHT22;61291;52.524;13.422;2023-11-25T13:31:19;4.70;99.90
5711;DHT22;61291;52.524;13.422;2023-11-25T13:33:44;4.60;99.90
5711;DHT22;61291;52.524;13.422;2023-11-25T13:36:10;4.40;99.90
5711;DHT22;61291;52.524;13.422;2023-11-25T13:38:36;4.30;99.90
5711;DHT22;61291;52.524;13.422;2023-11-25T13:41:01;4.30;99.90
5711;DHT22;61291;52.524;13.422;2023-11-25T13:43:27;4.30;99.90
5711;DHT22;61291;52.524;13.422;2023-11-25T13:45:52;4.40;99.90
5711;DHT22;61291;52.524;13.422;2023-11-25T13:48:18;4.40;99.90
5711;DHT22;61291;52.524;13.422;2023-11-25T13:50:44;4.40;99.90
5711;DHT22;61291;52.524;13.422;2023-11-25T13:53:09;4.30;99.90
5711;DHT22;61291;52.524;13.422;2023-11-25T13:55:35;4.20;99.90
5711;DHT22;61291;52.524;13.422;2023-11-25T13:58:07;4.10;99.90
5711;DHT22;61291;52.524;13.422;2023-11-25T14:00:33;4.00;99.90
5711;DHT22;61291;52.524;13.422;2023-11-25T14:02:59;3.90;99.90
5711;DHT22;61291;52.524;13.422;2023-11-25T14:05:28;3.80;99.90
5711;DHT22;61291;52.524;13.422;2023-11-25T14:07:56;3.80;99.90
5711;DHT22;61291;52.524;13.422;2023-11-25T14:10:21;3.70;99.90
5711;DHT22;61291;52.524;13.422;2023-11-25T14:12:47;3.70;99.90
5711;DHT22;61291;52.524;13.422;2023-11-25T14:15:12;3.60;99.90
5711;DHT22;61291;52.524;13.422;2023-11-25T14:17:40;3.50;99.90
5711;DHT22;61291;52.524;13.422;2023-11-25T14:20:09;3.60;99.90
5711;DHT22;61291;52.524;13.422;2023-11-25T14:22:42;3.60;99.90
5711;DHT22;61291;52.524;13.422;2023-11-25T14:25:10;3.70;99.90
5711;DHT22;61291;52.524;13.422;2023-11-25T14:27:35;3.60;99.90
5711;DHT22;61291;52.524;13.422;2023-11-25T14:30:01;3.70;99.90
5711;DHT22;61291;52.524;13.422;2023-11-25T14:32:26;3.60;99.90
5711;DHT22;61291;52.524;13.422;2023-11-25T14:34:52;3.50;99.90
5711;DHT22;61291;52.524;13.422;2023-11-25T14:37:18;3.60;99.90
5711;DHT22;61291;52.524;13.422;2023-11-25T14:39:44;3.60;99.90
5711;DHT22;61291;52.524;13.422;2023-11-25T14:42:10;3.50;99.90
5711;DHT22;61291;52.524;13.422;2023-11-25T14:44:36;3.40;99.90
5711;DHT22;61291;52.524;13.422;2023-11-25T14:47:02;3.40;99.90
5711;DHT22;61291;52.524;13.422;2023-11-25T14:49:27;3.40;99.90
5711;DHT22;61291;52.524;13.422;2023-11-25T14:51:54;3.30;99.90
5711;DHT22;61291;52.524;13.422;2023-11-25T14:54:20;3.30;99.90
5711;DHT22;61291;52.524;13.422;2023-11-25T14:56:47;3.40;99.90
5711;DHT22;61291;52.524;13.422;2023-11-25T14:59:14;3.40;99.90
5711;DHT22;61291;52.524;13.422;2023-11-25T15:01:41;3.50;99.90
5711;DHT22;61291;52.524;13.422;2023-11-25T15:04:07;3.30;99.90
5711;DHT22;61291;52.524;13.422;2023-11-25T15:06:33;3.40;99.90
5711;DHT22;61291;52.524;13.422;2023-11-25T15:08:59;3.40;99.90
5711;DHT22;61291;52.524;13.422;2023-11-25T15:11:25;3.40;99.90
5711;DHT22;61291;52.524;13.422;2023-11-25T15:13:50;3.40;99.90
5711;DHT22;61291;52.524;13.422;2023-11-25T15:16:15;3.30;99.90
5711;DHT22;61291;52.524;13.422;2023-11-25T15:18:41;3.40;99.90
5711;DHT22;61291;52.524;13.422;2023-11-25T15:21:06;3.50;99.90
5711;DHT22;61291;52.524;13.422;2023-11-25T15:23:33;3.30;99.90
5711;DHT22;61291;52.524;13.422;2023-11-25T15:26:00;3.40;99.90
5711;DHT22;61291;52.524;13.422;2023-11-25T15:28:26;3.40;99.90
5711;DHT22;61291;52.524;13.422;2023-11-25T15:30:51;3.50;99.90
5711;DHT22;61291;52.524;13.422;2023-11-25T15:33:17;3.40;99.90
5711;DHT22;61291;52.524;13.422;2023-11-25T15:35:42;3.50;99.90
5711;DHT22;61291;52.524;13.422;2023-11-25T15:38:08;3.50;99.90
5711;DHT22;61291;52.524;13.422;2023-11-25T15:40:33;3.50;99.90
5711;DHT22;61291;52.524;13.422;2023-11-25T15:42:59;3.50;99.90
5711;DHT22;61291;52.524;13.422;2023-11-25T15:45:24;3.60;99.90
5711;DHT22;61291;52.524;13.422;2023-11-25T15:47:50;3.50;99.90
5711;DHT22;61291;52.524;13.422;2023-11-25T15:50:16;3.60;99.90
5711;DHT22;61291;52.524;13.422;2023-11-25T15:52:41;3.50;99.90
5711;DHT22;61291;52.524;13.422;2023-11-25T15:55:07;3.50;99.90
5711;DHT22;61291;52.524;13.422;2023-11-25T15:57:37;3.50;99.90
5711;DHT22;61291;52.524;13.422;2023-11-25T16:00:03;3.50;99.90
5711;DHT22;61291;52.524;13.422;2023-11-25T16:02:38;3.50;99.90